sensor_id;sensor_type;location;lat;lon;timestamp;pressure;altitude;pressure_sealevel;temperature;humidity
41062;BME280;26812;42.662;23.352;2022-11-15T00:02:05;95479.28;;;5.12;73.31
41062;BME280;26812;42.662;23.352;2022-11-15T00:04:30;95493.72;;;5.31;73.10
41062;BME280;26812;42.662;23.352;2022-11-15T00:06:56;95495.84;;;5.39;72.33
41062;BME280;26812;42.662;23.352;2022-11-15T00:09:21;95501.47;;;5.33;72.57
41062;BME280;26812;42.662;23.352;2022-11-15T00:11:46;95472.09;;;5.07;72.96
41062;BME280;26812;42.662;23.352;2022-11-15T00:14:12;95497.19;;;5.26;72.68
41062;BME280;26812;42.662;23.352;2022-11-15T00:16:37;95497.19;;;5.32;72.32
41062;BME280;26812;42.662;23.352;2022-11-15T00:19:03;95487.28;;;5.17;72.02
41062;BME280;26812;42.662;23.352;2022-11-15T00:21:28;95478.50;;;5.06;72.41
41062;BME280;26812;42.662;23.352;2022-11-15T00:23:53;95499.84;;;5.11;72.29
41062;BME280;26812;42.662;23.352;2022-11-15T00:26:19;95471.28;;;5.02;72.63
41062;BME280;26812;42.662;23.352;2022-11-15T00:28:44;95484.91;;;4.95;72.94
41062;BME280;26812;42.662;23.352;2022-11-15T00:31:13;95479.28;;;4.86;73.24
41062;BME280;26812;42.662;23.352;2022-11-15T00:33:39;95471.03;;;4.93;73.25
41062;BME280;26812;42.662;23.352;2022-11-15T00:36:07;95485.69;;;5.11;71.89
41062;BME280;26812;42.662;23.352;2022-11-15T00:38:35;95464.63;;;4.99;71.99
41062;BME280;26812;42.662;23.352;2022-11-15T00:41:01;95474.22;;;5.05;71.60
41062;BME280;26812;42.662;23.352;2022-11-15T00:43:27;95462.75;;;4.84;72.01
41062;BME280;26812;42.662;23.352;2022-11-15T00:45:53;95477.44;;;4.82;72.39
41062;BME280;26812;42.662;23.352;2022-11-15T00:48:18;95454.44;;;4.55;73.31
41062;BME280;26812;42.662;23.352;2022-11-15T00:50:43;95452.34;;;4.62;73.67
41062;BME280;26812;42.662;23.352;2022-11-15T00:53:09;95436.59;;;4.66;72.68
41062;BME280;26812;42.662;23.352;2022-11-15T00:55:34;95464.88;;;4.62;72.79
41062;BME280;26812;42.662;23.352;2022-11-15T00:58:00;95466.44;;;4.48;73.25
41062;BME280;26812;42.662;23.352;2022-11-15T01:00:25;95462.19;;;4.57;73.76
41062;BME280;26812;42.662;23.352;2022-11-15T01:02:51;95440.03;;;4.56;73.65
41062;BME280;26812;42.662;23.352;2022-11-15T01:05:16;95460.34;;;4.83;73.02
41062;BME280;26812;42.662;23.352;2022-11-15T01:07:42;95451.25;;;4.89;72.15
41062;BME280;26812;42.662;23.352;2022-11-15T01:10:08;95445.38;;;4.87;72.02
41062;BME280;26812;42.662;23.352;2022-11-15T01:12:33;95455.25;;;4.86;71.80
41062;BME280;26812;42.662;23.352;2022-11-15T01:14:59;95444.34;;;4.62;72.09
41062;BME280;26812;42.662;23.352;2022-11-15T01:17:24;95473.44;;;4.94;72.39
41062;BME280;26812;42.662;23.352;2022-11-15T01:19:50;95460.06;;;4.84;71.52
41062;BME280;26812;42.662;23.352;2022-11-15T01:22:15;95460.88;;;4.59;72.54
41062;BME280;26812;42.662;23.352;2022-11-15T01:24:41;95450.44;;;4.53;72.65
41062;BME280;26812;42.662;23.352;2022-11-15T01:27:06;95456.06;;;4.66;72.75
41062;BME280;26812;42.662;23.352;2022-11-15T01:29:32;95439.22;;;4.46;73.08
41062;BME280;26812;42.662;23.352;2022-11-15T01:31:57;95436.28;;;4.42;73.30
41062;BME280;26812;42.662;23.352;2022-11-15T01:34:54;95461.41;;;4.66;73.38
41062;BME280;26812;42.662;23.352;2022-11-15T01:37:26;95456.59;;;4.68;73.31
41062;BME280;26812;42.662;23.352;2022-11-15T01:39:51;95459.53;;;4.67;72.90
41062;BME280;26812;42.662;23.352;2022-11-15T01:42:18;95453.13;;;4.53;73.45
41062;BME280;26812;42.662;23.352;2022-11-15T01:44:47;95457.94;;;4.66;73.78
41062;BME280;26812;42.662;23.352;2022-11-15T01:47:15;95463.28;;;4.86;72.72
41062;BME280;26812;42.662;23.352;2022-11-15T01:49:50;95464.06;;;4.77;72.30
41062;BME280;26812;42.662;23.352;2022-11-15T01:52:19;95449.13;;;4.65;72.63
41062;BME280;26812;42.662;23.352;2022-11-15T01:54:48;95452.06;;;4.79;72.31
41062;BME280;26812;42.662;23.352;2022-11-15T01:57:15;95421.91;;;4.63;71.99
41062;BME280;26812;42.662;23.352;2022-11-15T01:59:43;95448.59;;;4.79;72.28
41062;BME280;26812;42.662;23.352;2022-11-15T02:02:10;95445.94;;;4.63;71.65
41062;BME280;26812;42.662;23.352;2022-11-15T02:04:40;95435.19;;;4.23;72.64
41062;BME280;26812;42.662;23.352;2022-11-15T02:07:06;95435.19;;;4.23;72.85
41062;BME280;26812;42.662;23.352;2022-11-15T02:09:36;95436.25;;;4.27;73.30
41062;BME280;26812;42.662;23.352;2022-11-15T02:12:02;95451.72;;;4.25;73.85
41062;BME280;26812;42.662;23.352;2022-11-15T02:14:28;95451.22;;;4.33;73.84
41062;BME280;26812;42.662;23.352;2022-11-15T02:33:07;95450.44;;;4.32;72.46
41062;BME280;26812;42.662;23.352;2022-11-15T02:41:20;95442.16;;;4.44;73.19
41062;BME280;26812;42.662;23.352;2022-11-15T02:43:51;95439.22;;;4.35;73.27
41062;BME280;26812;42.662;23.352;2022-11-15T02:49:14;95446.16;;;4.52;72.92
41062;BME280;26812;42.662;23.352;2022-11-15T02:51:40;95435.75;;;4.50;72.70
41062;BME280;26812;42.662;23.352;2022-11-15T02:54:12;95444.03;;;4.59;72.75
41062;BME280;26812;42.662;23.352;2022-11-15T02:56:38;95444.56;;;4.51;73.19
41062;BME280;26812;42.662;23.352;2022-11-15T03:04:44;95457.66;;;4.47;73.19
41062;BME280;26812;42.662;23.352;2022-11-15T03:07:18;95451.00;;;4.65;73.11
41062;BME280;26812;42.662;23.352;2022-11-15T03:10:12;95443.78;;;4.71;72.26
41062;BME280;26812;42.662;23.352;2022-11-15T03:13:02;95448.06;;;4.72;71.75
41062;BME280;26812;42.662;23.352;2022-11-15T03:15:37;95452.06;;;4.64;71.78
41062;BME280;26812;42.662;23.352;2022-11-15T03:18:12;95448.06;;;4.61;72.31
41062;BME280;26812;42.662;23.352;2022-11-15T03:20:42;95456.59;;;4.89;71.79
41062;BME280;26812;42.662;23.352;2022-11-15T03:23:09;95452.63;;;4.96;70.98
41062;BME280;26812;42.662;23.352;2022-11-15T03:25:38;95433.13;;;4.91;71.14
41062;BME280;26812;42.662;23.352;2022-11-15T03:28:07;95439.00;;;4.98;71.22
41062;BME280;26812;42.662;23.352;2022-11-15T03:30:36;95441.66;;;5.03;70.75
41062;BME280;26812;42.662;23.352;2022-11-15T03:33:03;95435.78;;;5.06;70.69
41062;BME280;26812;42.662;23.352;2022-11-15T03:35:37;95436.31;;;5.08;70.47
41062;BME280;26812;42.662;23.352;2022-11-15T03:38:24;95441.38;;;5.25;70.58
41062;BME280;26812;42.662;23.352;2022-11-15T03:41:03;95427.19;;;5.14;69.90
41062;BME280;26812;42.662;23.352;2022-11-15T03:43:39;95427.47;;;5.13;70.25
41062;BME280;26812;42.662;23.352;2022-11-15T03:46:12;95428.28;;;5.23;70.47
41062;BME280;26812;42.662;23.352;2022-11-15T03:48:47;95421.78;;;5.45;69.96
41062;BME280;26812;42.662;23.352;2022-11-15T03:51:15;95416.16;;;5.56;69.19
41062;BME280;26812;42.662;23.352;2022-11-15T03:53:41;95420.44;;;5.57;69.04
41062;BME280;26812;42.662;23.352;2022-11-15T03:56:07;95420.72;;;5.56;69.04
41062;BME280;26812;42.662;23.352;2022-11-15T03:58:32;95390.53;;;5.40;69.33
41062;BME280;26812;42.662;23.352;2022-11-15T04:00:57;95406.81;;;5.54;68.71
41062;BME280;26812;42.662;23.352;2022-11-15T04:03:25;95410.28;;;5.54;69.33
41062;BME280;26812;42.662;23.352;2022-11-15T04:05:50;95402.56;;;5.43;68.79
41062;BME280;26812;42.662;23.352;2022-11-15T04:08:15;95400.44;;;5.35;68.65
41062;BME280;26812;42.662;23.352;2022-11-15T04:10:49;95413.53;;;5.36;68.54
41062;BME280;26812;42.662;23.352;2022-11-15T04:13:15;95414.84;;;5.44;69.07
41062;BME280;26812;42.662;23.352;2022-11-15T04:15:40;95402.31;;;5.39;68.42
41062;BME280;26812;42.662;23.352;2022-11-15T04:18:05;95408.16;;;5.46;68.32
41062;BME280;26812;42.662;23.352;2022-11-15T04:20:31;95394.84;;;5.31;68.43
41062;BME280;26812;42.662;23.352;2022-11-15T04:23:17;95403.97;;;5.25;68.58
41062;BME280;26812;42.662;23.352;2022-11-15T04:26:02;95406.31;;;5.37;68.40
41062;BME280;26812;42.662;23.352;2022-11-15T04:28:28;95363.09;;;5.14;67.93
41062;BME280;26812;42.662;23.352;2022-11-15T04:30:53;95381.53;;;5.21;68.01
41062;BME280;26812;42.662;23.352;2022-11-15T04:33:19;95363.13;;;5.09;68.10
41062;BME280;26812;42.662;23.352;2022-11-15T04:35:45;95406.59;;;5.35;67.94
41062;BME280;26812;42.662;23.352;2022-11-15T04:38:31;95395.66;;;5.32;68.09
41062;BME280;26812;42.662;23.352;2022-11-15T04:41:03;95406.31;;;5.37;68.02
41062;BME280;26812;42.662;23.352;2022-11-15T04:43:29;95403.16;;;5.29;68.08
41062;BME280;26812;42.662;23.352;2022-11-15T04:45:54;95391.94;;;5.17;68.17
41062;BME280;26812;42.662;23.352;2022-11-15T04:48:20;95364.75;;;4.95;68.45
41062;BME280;26812;42.662;23.352;2022-11-15T04:50:47;95398.44;;;4.60;70.66
41062;BME280;26812;42.662;23.352;2022-11-15T04:53:13;95403.66;;;3.89;74.81
41062;BME280;26812;42.662;23.352;2022-11-15T04:55:38;95411.78;;;3.57;77.72
41062;BME280;26812;42.662;23.352;2022-11-15T04:58:04;95417.53;;;3.96;77.19
41062;BME280;26812;42.662;23.352;2022-11-15T05:00:29;95373.31;;;4.05;76.55
41062;BME280;26812;42.662;23.352;2022-11-15T05:02:56;95404.56;;;4.35;75.66
41062;BME280;26812;42.662;23.352;2022-11-15T05:05:40;95412.00;;;4.49;76.78
41062;BME280;26812;42.662;23.352;2022-11-15T05:08:06;95415.50;;;4.70;76.61
41062;BME280;26812;42.662;23.352;2022-11-15T05:10:31;95386.41;;;4.68;75.83
41062;BME280;26812;42.662;23.352;2022-11-15T05:12:57;95399.72;;;4.83;75.40
41062;BME280;26812;42.662;23.352;2022-11-15T05:15:22;95422.16;;;5.08;75.75
41062;BME280;26812;42.662;23.352;2022-11-15T05:17:47;95385.28;;;5.05;75.28
41062;BME280;26812;42.662;23.352;2022-11-15T05:20:13;95408.75;;;5.18;75.36
41062;BME280;26812;42.662;23.352;2022-11-15T05:22:39;95403.72;;;5.21;75.22
41062;BME280;26812;42.662;23.352;2022-11-15T05:25:05;95415.97;;;5.17;74.70
41062;BME280;26812;42.662;23.352;2022-11-15T05:27:32;95420.25;;;5.28;74.87
41062;BME280;26812;42.662;23.352;2022-11-15T05:29:58;95413.81;;;5.35;75.09
41062;BME280;26812;42.662;23.352;2022-11-15T05:32:23;95411.47;;;5.08;76.46
41062;BME280;26812;42.662;23.352;2022-11-15T05:34:49;95407.72;;;5.09;77.06
41062;BME280;26812;42.662;23.352;2022-11-15T05:37:15;95410.16;;;4.64;79.26
41062;BME280;26812;42.662;23.352;2022-11-15T05:39:41;95397.63;;;4.45;79.82
41062;BME280;26812;42.662;23.352;2022-11-15T05:42:14;95391.19;;;4.25;81.14
41062;BME280;26812;42.662;23.352;2022-11-15T05:44:44;95413.56;;;4.09;82.37
41062;BME280;26812;42.662;23.352;2022-11-15T05:47:15;95402.38;;;4.22;82.68
41062;BME280;26812;42.662;23.352;2022-11-15T05:49:43;95393.53;;;3.96;82.68
41062;BME280;26812;42.662;23.352;2022-11-15T05:52:11;95409.84;;;4.05;83.45
41062;BME280;26812;42.662;23.352;2022-11-15T05:54:40;95415.50;;;4.44;83.22
41062;BME280;26812;42.662;23.352;2022-11-15T05:57:06;95414.94;;;4.57;82.46
41062;BME280;26812;42.662;23.352;2022-11-15T05:59:33;95411.78;;;4.60;81.59
41062;BME280;26812;42.662;23.352;2022-11-15T06:01:59;95406.16;;;4.62;81.27
41062;BME280;26812;42.662;23.352;2022-11-15T06:04:24;95403.22;;;4.74;80.95
41062;BME280;26812;42.662;23.352;2022-11-15T06:06:50;95413.88;;;4.84;80.66
41062;BME280;26812;42.662;23.352;2022-11-15T06:09:15;95411.22;;;4.53;80.30
41062;BME280;26812;42.662;23.352;2022-11-15T06:11:40;95406.38;;;4.10;81.07
41062;BME280;26812;42.662;23.352;2022-11-15T06:14:06;95399.44;;;4.24;81.65
41062;BME280;26812;42.662;23.352;2022-11-15T06:16:31;95419.72;;;4.25;81.66
41062;BME280;26812;42.662;23.352;2022-11-15T06:18:57;95420.78;;;4.19;82.57
41062;BME280;26812;42.662;23.352;2022-11-15T06:21:22;95406.41;;;4.35;81.61
41062;BME280;26812;42.662;23.352;2022-11-15T06:23:48;95424.81;;;4.47;81.50
41062;BME280;26812;42.662;23.352;2022-11-15T06:26:13;95420.59;;;4.61;80.62
41062;BME280;26812;42.662;23.352;2022-11-15T06:28:38;95410.69;;;4.72;80.23
41062;BME280;26812;42.662;23.352;2022-11-15T06:31:06;95424.00;;;5.12;79.78
41062;BME280;26812;42.662;23.352;2022-11-15T06:33:32;95423.69;;;5.34;79.17
41062;BME280;26812;42.662;23.352;2022-11-15T06:36:06;95412.97;;;5.44;78.09
41062;BME280;26812;42.662;23.352;2022-11-15T06:38:32;95415.13;;;5.52;77.46
41062;BME280;26812;42.662;23.352;2022-11-15T06:41:02;95413.47;;;5.61;76.85
41062;BME280;26812;42.662;23.352;2022-11-15T06:43:28;95415.31;;;5.66;76.55
41062;BME280;26812;42.662;23.352;2022-11-15T06:45:54;95378.22;;;5.49;76.35
41062;BME280;26812;42.662;23.352;2022-11-15T06:48:19;95412.56;;;5.81;75.74
41062;BME280;26812;42.662;23.352;2022-11-15T06:50:53;95414.19;;;5.82;75.25
41062;BME280;26812;42.662;23.352;2022-11-15T06:53:19;95408.84;;;5.82;74.64
41062;BME280;26812;42.662;23.352;2022-11-15T06:55:44;95416.88;;;5.77;75.21
41062;BME280;26812;42.662;23.352;2022-11-15T06:58:10;95418.72;;;5.92;75.09
41062;BME280;26812;42.662;23.352;2022-11-15T07:00:35;95402.69;;;5.82;74.69
41062;BME280;26812;42.662;23.352;2022-11-15T07:03:08;95420.88;;;5.90;73.64
41062;BME280;26812;42.662;23.352;2022-11-15T07:05:34;95413.28;;;5.38;75.45
41062;BME280;26812;42.662;23.352;2022-11-15T07:07:59;95411.63;;;5.47;75.93
41062;BME280;26812;42.662;23.352;2022-11-15T07:10:25;95408.88;;;5.72;75.77
41062;BME280;26812;42.662;23.352;2022-11-15T07:12:51;95409.34;;;5.95;74.78
41062;BME280;26812;42.662;23.352;2022-11-15T07:15:18;95396.47;;;6.02;74.38
41062;BME280;26812;42.662;23.352;2022-11-15T07:17:44;95388.66;;;6.10;73.93
41062;BME280;26812;42.662;23.352;2022-11-15T07:20:10;95386.78;;;6.16;73.41
41062;BME280;26812;42.662;23.352;2022-11-15T07:22:36;95399.88;;;6.17;73.66
41062;BME280;26812;42.662;23.352;2022-11-15T07:25:02;95396.84;;;6.29;73.25
41062;BME280;26812;42.662;23.352;2022-11-15T07:27:28;95385.94;;;6.20;73.21
41062;BME280;26812;42.662;23.352;2022-11-15T07:29:53;95409.34;;;6.39;73.60
41062;BME280;26812;42.662;23.352;2022-11-15T07:32:19;95398.63;;;6.44;73.47
41062;BME280;26812;42.662;23.352;2022-11-15T07:34:44;95396.22;;;6.42;73.01
41062;BME280;26812;42.662;23.352;2022-11-15T07:37:11;95401.84;;;6.41;72.31
41062;BME280;26812;42.662;23.352;2022-11-15T07:39:43;95398.41;;;6.35;73.01
41062;BME280;26812;42.662;23.352;2022-11-15T07:42:08;95411.94;;;6.54;72.86
41062;BME280;26812;42.662;23.352;2022-11-15T07:44:52;95415.66;;;6.58;72.84
41062;BME280;26812;42.662;23.352;2022-11-15T07:47:18;95384.88;;;6.56;72.41
41062;BME280;26812;42.662;23.352;2022-11-15T07:49:44;95383.94;;;6.75;72.09
41062;BME280;26812;42.662;23.352;2022-11-15T07:52:11;95405.25;;;6.85;71.23
41062;BME280;26812;42.662;23.352;2022-11-15T07:54:36;95378.81;;;6.79;71.26
41062;BME280;26812;42.662;23.352;2022-11-15T07:57:02;95397.69;;;6.93;70.69
41062;BME280;26812;42.662;23.352;2022-11-15T07:59:27;95390.59;;;6.78;70.67
41062;BME280;26812;42.662;23.352;2022-11-15T08:01:53;95384.16;;;6.79;70.92
41062;BME280;26812;42.662;23.352;2022-11-15T08:04:18;95382.88;;;6.71;71.24
41062;BME280;26812;42.662;23.352;2022-11-15T08:06:43;95371.22;;;6.57;71.25
41062;BME280;26812;42.662;23.352;2022-11-15T08:09:09;95375.41;;;6.68;71.41
41062;BME280;26812;42.662;23.352;2022-11-15T08:11:34;95386.34;;;6.77;71.84
41062;BME280;26812;42.662;23.352;2022-11-15T08:13:59;95379.66;;;6.74;71.76
41062;BME280;26812;42.662;23.352;2022-11-15T08:16:25;95368.94;;;6.74;71.56
41062;BME280;26812;42.662;23.352;2022-11-15T08:18:50;95370.72;;;6.84;72.63
41062;BME280;26812;42.662;23.352;2022-11-15T08:21:19;95357.38;;;6.79;72.09
41062;BME280;26812;42.662;23.352;2022-11-15T08:23:45;95380.50;;;6.99;71.69
41062;BME280;26812;42.662;23.352;2022-11-15T08:26:11;95386.84;;;7.08;71.07
41062;BME280;26812;42.662;23.352;2022-11-15T08:28:37;95378.47;;;7.14;71.80
41062;BME280;26812;42.662;23.352;2022-11-15T08:31:03;95386.84;;;7.32;70.98
41062;BME280;26812;42.662;23.352;2022-11-15T08:33:29;95380.97;;;7.35;70.79
41062;BME280;26812;42.662;23.352;2022-11-15T08:35:59;95387.50;;;7.47;70.02
41062;BME280;26812;42.662;23.352;2022-11-15T08:38:25;95381.78;;;6.72;71.60
41062;BME280;26812;42.662;23.352;2022-11-15T08:41:02;95352.91;;;6.69;73.00
41062;BME280;26812;42.662;23.352;2022-11-15T08:43:28;95377.97;;;7.12;72.46
41062;BME280;26812;42.662;23.352;2022-11-15T08:45:56;95359.88;;;7.23;71.65
41062;BME280;26812;42.662;23.352;2022-11-15T08:48:22;95364.91;;;7.30;71.27
41062;BME280;26812;42.662;23.352;2022-11-15T08:50:48;95356.97;;;7.20;71.43
41062;BME280;26812;42.662;23.352;2022-11-15T08:53:13;95353.94;;;7.02;71.23
41062;BME280;26812;42.662;23.352;2022-11-15T08:55:39;95372.25;;;7.19;71.27
41062;BME280;26812;42.662;23.352;2022-11-15T08:58:05;95363.22;;;6.86;71.07
41062;BME280;26812;42.662;23.352;2022-11-15T09:00:31;95353.41;;;7.00;71.63
41062;BME280;26812;42.662;23.352;2022-11-15T09:02:57;95348.44;;;7.18;71.75
41062;BME280;26812;42.662;23.352;2022-11-15T09:05:22;95330.13;;;6.72;73.12
41062;BME280;26812;42.662;23.352;2022-11-15T09:07:52;95338.72;;;6.98;72.73
41062;BME280;26812;42.662;23.352;2022-11-15T09:10:18;95341.25;;;7.37;72.19
41062;BME280;26812;42.662;23.352;2022-11-15T09:12:43;95336.72;;;7.56;71.69
41062;BME280;26812;42.662;23.352;2022-11-15T09:15:09;95347.22;;;7.76;70.87
41062;BME280;26812;42.662;23.352;2022-11-15T09:17:34;95330.03;;;7.77;69.81
41062;BME280;26812;42.662;23.352;2022-11-15T09:20:00;95333.53;;;7.97;69.33
41062;BME280;26812;42.662;23.352;2022-11-15T09:22:26;95323.59;;;7.97;68.76
41062;BME280;26812;42.662;23.352;2022-11-15T09:24:51;95318.44;;;8.01;68.34
41062;BME280;26812;42.662;23.352;2022-11-15T09:27:16;95320.97;;;7.92;68.04
41062;BME280;26812;42.662;23.352;2022-11-15T09:29:42;95318.22;;;7.97;67.88
41062;BME280;26812;42.662;23.352;2022-11-15T09:32:07;95318.44;;;8.01;68.07
41062;BME280;26812;42.662;23.352;2022-11-15T09:34:33;95321.06;;;8.06;68.68
41062;BME280;26812;42.662;23.352;2022-11-15T09:36:58;95315.66;;;8.25;68.09
41062;BME280;26812;42.662;23.352;2022-11-15T09:39:23;95305.75;;;8.06;67.63
41062;BME280;26812;42.662;23.352;2022-11-15T09:49:52;95304.59;;;8.64;66.57
41062;BME280;26812;42.662;23.352;2022-11-15T09:52:19;95309.69;;;8.65;66.18
41062;BME280;26812;42.662;23.352;2022-11-15T09:54:48;95294.91;;;8.95;65.98
41062;BME280;26812;42.662;23.352;2022-11-15T09:57:17;95295.25;;;9.21;65.27
41062;BME280;26812;42.662;23.352;2022-11-15T10:00:19;95287.16;;;9.08;64.83
41062;BME280;26812;42.662;23.352;2022-11-15T10:05:26;95275.78;;;10.38;62.43
41062;BME280;26812;42.662;23.352;2022-11-15T10:08:20;95265.75;;;11.14;60.17
41062;BME280;26812;42.662;23.352;2022-11-15T10:10:57;95274.25;;;12.21;56.77
41062;BME280;26812;42.662;23.352;2022-11-15T10:13:26;95270.38;;;13.38;53.53
41062;BME280;26812;42.662;23.352;2022-11-15T10:15:55;95255.66;;;14.81;48.41
41062;BME280;26812;42.662;23.352;2022-11-15T10:21:17;95256.41;;;17.72;41.79
41062;BME280;26812;42.662;23.352;2022-11-15T10:23:45;95238.66;;;18.32;38.45
41062;BME280;26812;42.662;23.352;2022-11-15T10:26:13;95202.91;;;18.18;38.77
41062;BME280;26812;42.662;23.352;2022-11-15T10:28:40;95240.34;;;19.17;37.12
41062;BME280;26812;42.662;23.352;2022-11-15T10:31:24;95234.44;;;19.84;35.64
41062;BME280;26812;42.662;23.352;2022-11-15T10:33:51;95235.13;;;20.34;34.64
41062;BME280;26812;42.662;23.352;2022-11-15T10:36:24;95220.44;;;20.79;33.58
41062;BME280;26812;42.662;23.352;2022-11-15T10:38:53;95224.59;;;20.99;32.76
41062;BME280;26812;42.662;23.352;2022-11-15T10:44:07;95209.09;;;21.55;31.43
41062;BME280;26812;42.662;23.352;2022-11-15T10:46:38;95207.53;;;21.13;32.17
41062;BME280;26812;42.662;23.352;2022-11-15T10:49:15;95208.50;;;21.31;31.66
41062;BME280;26812;42.662;23.352;2022-11-15T10:52:12;95206.81;;;22.26;30.13
41062;BME280;26812;42.662;23.352;2022-11-15T10:54:46;95190.72;;;23.33;28.63
41062;BME280;26812;42.662;23.352;2022-11-15T10:57:18;95195.47;;;23.61;28.24
41062;BME280;26812;42.662;23.352;2022-11-15T11:02:57;95170.66;;;25.01;26.13
41062;BME280;26812;42.662;23.352;2022-11-15T11:05:39;95168.34;;;25.52;25.93
41062;BME280;26812;42.662;23.352;2022-11-15T11:10:37;95157.22;;;24.30;26.75
41062;BME280;26812;42.662;23.352;2022-11-15T11:13:22;95155.25;;;24.34;26.93
41062;BME280;26812;42.662;23.352;2022-11-15T11:29:44;95128.63;;;23.78;27.31
41062;BME280;26812;42.662;23.352;2022-11-15T11:35:05;95123.44;;;24.96;26.09
41062;BME280;26812;42.662;23.352;2022-11-15T11:37:53;95116.38;;;24.91;26.27
41062;BME280;26812;42.662;23.352;2022-11-15T11:46:24;95094.19;;;24.46;26.46
41062;BME280;26812;42.662;23.352;2022-11-15T11:49:02;95096.44;;;24.69;26.47
41062;BME280;26812;42.662;23.352;2022-11-15T11:52:17;95085.94;;;25.13;25.50
41062;BME280;26812;42.662;23.352;2022-11-15T11:58:17;95079.09;;;26.10;24.46
41062;BME280;26812;42.662;23.352;2022-11-15T12:00:56;95071.41;;;25.53;24.64
41062;BME280;26812;42.662;23.352;2022-11-15T12:03:47;95074.97;;;25.91;24.39
41062;BME280;26812;42.662;23.352;2022-11-15T12:09:39;95060.22;;;25.26;25.32
41062;BME280;26812;42.662;23.352;2022-11-15T12:14:57;95047.81;;;25.86;24.78
41062;BME280;26812;42.662;23.352;2022-11-15T12:17:26;95052.38;;;25.62;24.82
41062;BME280;26812;42.662;23.352;2022-11-15T12:19:58;95049.06;;;26.16;24.46
41062;BME280;26812;42.662;23.352;2022-11-15T12:22:44;95015.50;;;26.75;23.48
41062;BME280;26812;42.662;23.352;2022-11-15T12:28:01;95029.81;;;26.93;23.09
41062;BME280;26812;42.662;23.352;2022-11-15T12:30:45;95021.75;;;26.52;23.97
41062;BME280;26812;42.662;23.352;2022-11-15T12:33:42;95024.97;;;27.24;22.93
41062;BME280;26812;42.662;23.352;2022-11-15T12:41:38;95019.00;;;27.49;22.39
41062;BME280;26812;42.662;23.352;2022-11-15T12:44:11;95014.53;;;26.85;23.09
41062;BME280;26812;42.662;23.352;2022-11-15T13:04:48;94997.56;;;25.30;25.30
41062;BME280;26812;42.662;23.352;2022-11-15T13:09:58;94992.03;;;24.27;26.58
41062;BME280;26812;42.662;23.352;2022-11-15T13:15:00;94981.19;;;23.95;27.18
41062;BME280;26812;42.662;23.352;2022-11-15T13:28:03;94973.19;;;23.13;28.57
41062;BME280;26812;42.662;23.352;2022-11-15T13:30:35;94955.91;;;23.19;28.47
41062;BME280;26812;42.662;23.352;2022-11-15T13:33:16;94968.88;;;23.15;28.55
41062;BME280;26812;42.662;23.352;2022-11-15T13:35:45;94948.88;;;23.01;28.83
41062;BME280;26812;42.662;23.352;2022-11-15T13:38:24;94948.50;;;22.59;29.38
41062;BME280;26812;42.662;23.352;2022-11-15T13:40:54;94957.09;;;22.08;30.20
41062;BME280;26812;42.662;23.352;2022-11-15T13:48:35;94958.88;;;21.65;31.02
41062;BME280;26812;42.662;23.352;2022-11-15T13:51:10;94937.19;;;21.24;31.31
41062;BME280;26812;42.662;23.352;2022-11-15T13:53:42;94959.56;;;20.78;32.28
41062;BME280;26812;42.662;23.352;2022-11-15T13:56:12;94940.38;;;19.23;34.89
41062;BME280;26812;42.662;23.352;2022-11-15T13:58:38;94947.16;;;18.76;36.01
41062;BME280;26812;42.662;23.352;2022-11-15T14:01:05;94940.06;;;18.22;36.96
41062;BME280;26812;42.662;23.352;2022-11-15T14:03:35;94942.47;;;17.82;37.66
41062;BME280;26812;42.662;23.352;2022-11-15T14:06:09;94943.06;;;17.33;38.82
41062;BME280;26812;42.662;23.352;2022-11-15T14:08:39;94949.72;;;16.81;39.96
41062;BME280;26812;42.662;23.352;2022-11-15T14:13:34;94924.09;;;15.68;42.58
41062;BME280;26812;42.662;23.352;2022-11-15T14:16:17;94929.88;;;15.39;43.70
41062;BME280;26812;42.662;23.352;2022-11-15T14:18:51;94941.97;;;15.13;44.56
41062;BME280;26812;42.662;23.352;2022-11-15T14:21:18;94945.81;;;14.72;45.66
41062;BME280;26812;42.662;23.352;2022-11-15T14:23:44;94916.34;;;14.22;46.81
41062;BME280;26812;42.662;23.352;2022-11-15T14:26:33;94935.06;;;13.90;48.19
41062;BME280;26812;42.662;23.352;2022-11-15T14:29:29;94945.38;;;13.64;48.98
41062;BME280;26812;42.662;23.352;2022-11-15T14:32:46;94946.19;;;13.31;50.83
41062;BME280;26812;42.662;23.352;2022-11-15T14:35:18;94945.13;;;12.61;52.93
41062;BME280;26812;42.662;23.352;2022-11-15T14:37:45;94943.19;;;12.41;53.78
41062;BME280;26812;42.662;23.352;2022-11-15T14:40:18;94956.69;;;12.11;55.20
41062;BME280;26812;42.662;23.352;2022-11-15T14:42:45;94949.81;;;11.85;55.95
41062;BME280;26812;42.662;23.352;2022-11-15T14:45:14;94943.66;;;11.67;56.41
41062;BME280;26812;42.662;23.352;2022-11-15T14:47:41;94939.41;;;11.48;57.46
41062;BME280;26812;42.662;23.352;2022-11-15T14:50:10;94949.78;;;11.12;58.88
41062;BME280;26812;42.662;23.352;2022-11-15T14:52:36;94942.03;;;10.84;59.68
41062;BME280;26812;42.662;23.352;2022-11-15T14:55:12;94942.84;;;10.76;60.05
41062;BME280;26812;42.662;23.352;2022-11-15T14:57:40;94938.38;;;10.80;60.04
41062;BME280;26812;42.662;23.352;2022-11-15T15:00:07;94949.19;;;10.72;60.55
41062;BME280;26812;42.662;23.352;2022-11-15T15:02:33;94946.09;;;10.39;61.54
41062;BME280;26812;42.662;23.352;2022-11-15T15:04:59;94954.41;;;10.11;63.31
41062;BME280;26812;42.662;23.352;2022-11-15T15:07:27;94943.41;;;9.82;64.04
41062;BME280;26812;42.662;23.352;2022-11-15T15:09:52;94946.16;;;9.68;64.56
41062;BME280;26812;42.662;23.352;2022-11-15T15:12:20;94942.91;;;9.80;64.84
41062;BME280;26812;42.662;23.352;2022-11-15T15:14:47;94938.50;;;9.92;64.52
41062;BME280;26812;42.662;23.352;2022-11-15T15:17:13;94932.81;;;9.94;63.87
41062;BME280;26812;42.662;23.352;2022-11-15T15:19:39;94942.81;;;10.02;63.55
41062;BME280;26812;42.662;23.352;2022-11-15T15:22:05;94941.09;;;10.06;63.79
41062;BME280;26812;42.662;23.352;2022-11-15T15:24:31;94929.84;;;10.04;63.62